Barnstable Municipal Boardman Polando Field
KHYA : now visible

Aeroporto :











RITROVATECI SU...

 
LOGIN :

Iscrizione | Disclaimer

   EN    FR    IT 

 









Sommario :    VFR   VFR Marginale   IFR   IFR Intensivo   IFR Molto Intensivo
Visibilità : 
Base nubi : 
>= 8 km
>= 3000ft
5 / 8 km
1000 / 3000 ft
1500m / 5 km
500 / 1000 ft
800 / 1500m
200 / 500 ft
< 800m
< 200 ft
Simboli :   Temporali  Nebbia  Neve Forte  Precipitazioni Forti  Vento > 20 kt







- Altitudine del aeroporto : 54 ft
- Codice IATA : HYA


KHYA - Barnstable Municipal Boardman Polando Field

ULTIMO METAR :
  • 201356Z 22010G18KT 1/4SM FG VV002 14/13 A2993 RMK AO2 SLP137 T01390133

METARs OBSOLETI :
  • 201347Z 21009G18KT 3/4SM BR OVC001 14/13 A2993 RMK AO2 T01390128
  • 201331Z 20007KT 1/4SM FG OVC002 14/13 A2993 RMK AO2 T01390133
  • 201256Z 19014G20KT 1 1/4SM BR OVC002 15/14 A2990 RMK AO2 RAB35E44 SLP125 P0000 T01500139
  • 201156Z 19012G20KT 1/4SM FG OVC001 14/13 A2989 RMK AO2 SLP121 70001 T01390133 10144 20133 50007
  • 201144Z 19011G19KT 1/2SM FG VV002 14/13 A2989 RMK AO2 T01440133

TAF KHYA
Valido dal 20 a 13 ore il 21 a 12 ore UTC


201303Z 2013/2112 19015G22KT 1SM BR VCSH OVC002 WS020/20055KT
FM201500 18018G25KT 1SM BR VCSH OVC004 WS020/20055KT
FM201900 17017G28KT 1/2SM FG VCSH OVC003 WS020/20055KT
FM202100 17016G25KT 1 1/2SM BR VCSH OVC003 WS020/20055KT
FM210700 18013G20KT 3/4SM -SHRA OVC003 WS020/19045KT
FM211000 18010KT 1SM -SHRA OVC003
FIR KZBW / America del Nord



MetMap, La meteo Aeronautica in un colpo d'occhio ! - Copyright ORBIFLY Dicembre 2007 - Disclaimer

ORBIFLY MET'MAP TEAM :

Programmazione e sviluppo : Alexandra Zaïnal
Concezione e sviluppo : Baudouin d'Aumeries
Co-Programmazione e sviluppo : Marc-Olivier Méhu
Supporto tecnico e logistico : Manuel Goepfert
Aiuto per la traduzione : Arnaldo La Scala

Contatto : metmap@orbifly.com




FONTI E CREDITI :

   NOAA       Earth
Advisory